createdAt,value
2019-02-04T00:00:35.742Z,950.47
2019-02-04T00:01:35.651Z,950.46
2019-02-04T00:02:35.529Z,950.52
2019-02-04T00:03:35.427Z,950.51
2019-02-04T00:04:35.327Z,950.57
2019-02-04T00:05:35.219Z,950.58
2019-02-04T00:06:35.131Z,950.61
2019-02-04T00:07:35.119Z,950.58
2019-02-04T00:08:34.906Z,950.64
2019-02-04T00:09:34.804Z,950.68
2019-02-04T00:10:34.700Z,950.64
2019-02-04T00:11:34.614Z,950.68
2019-02-04T00:12:34.492Z,950.67
2019-02-04T00:13:34.387Z,950.67
2019-02-04T00:14:34.279Z,950.69
2019-02-04T00:15:34.177Z,950.70
2019-02-04T00:16:40.658Z,950.74
2019-02-04T00:17:33.969Z,950.74
2019-02-04T00:18:33.868Z,950.72
2019-02-04T00:19:33.763Z,950.82
2019-02-04T00:20:33.656Z,950.86
2019-02-04T00:21:33.804Z,950.86
2019-02-04T00:22:33.450Z,950.86
2019-02-04T00:23:33.345Z,950.85
2019-02-04T00:24:33.238Z,950.89
2019-02-04T00:25:33.141Z,950.95
2019-02-04T00:26:33.053Z,950.92
2019-02-04T00:27:32.930Z,951.00
2019-02-04T00:28:32.930Z,950.97
2019-02-04T00:29:32.724Z,950.98
2019-02-04T00:30:32.618Z,950.98
2019-02-04T00:31:34.459Z,951.01
2019-02-04T00:32:32.415Z,951.00
2019-02-04T00:33:32.304Z,951.02
2019-02-04T00:34:32.202Z,951.03
2019-02-04T00:35:32.204Z,951.01
2019-02-04T00:36:32.009Z,951.09
2019-02-04T00:37:31.891Z,951.08
2019-02-04T00:38:31.787Z,951.07
2019-02-04T00:39:31.681Z,951.10
2019-02-04T00:40:31.576Z,951.07
2019-02-04T00:41:31.488Z,951.12
2019-02-04T00:42:31.492Z,951.13
2019-02-04T00:43:31.263Z,951.17
2019-02-04T00:44:31.160Z,951.22
2019-02-04T00:45:31.056Z,951.24
2019-02-04T00:46:30.970Z,951.22
2019-02-04T00:47:30.846Z,951.23
2019-02-04T00:48:30.745Z,951.21
2019-02-04T00:49:30.749Z,951.27
2019-02-04T00:50:30.543Z,951.25
2019-02-04T00:51:30.449Z,951.29
2019-02-04T00:52:30.345Z,951.30
2019-02-04T00:53:30.223Z,951.33
2019-02-04T00:54:30.121Z,951.38
2019-02-04T00:55:30.020Z,951.38
2019-02-04T00:56:30.017Z,951.38
2019-02-04T00:57:29.825Z,951.43
2019-02-04T00:58:29.707Z,951.44
2019-02-04T00:59:29.609Z,951.42
2019-02-04T01:00:29.498Z,951.45
2019-02-04T01:01:29.398Z,951.46
2019-02-04T01:02:29.306Z,951.46
2019-02-04T01:03:29.290Z,951.46
2019-02-04T01:04:29.087Z,951.53
2019-02-04T01:05:28.977Z,951.51
2019-02-04T01:06:28.878Z,951.53
2019-02-04T01:07:28.787Z,951.58
2019-02-04T01:08:28.671Z,951.64
2019-02-04T01:09:28.564Z,951.67
2019-02-04T01:10:28.563Z,951.64
2019-02-04T01:11:28.354Z,951.71
2019-02-04T01:12:28.269Z,951.70
2019-02-04T01:13:28.149Z,951.74
2019-02-04T01:14:28.048Z,951.75
2019-02-04T01:15:27.946Z,951.72
2019-02-04T01:16:27.838Z,951.78
2019-02-04T01:17:27.874Z,951.78
2019-02-04T01:18:27.633Z,951.82
2019-02-04T01:19:27.526Z,951.82
2019-02-04T01:20:27.422Z,951.83
2019-02-04T01:21:27.318Z,951.88
2019-02-04T01:22:27.233Z,951.90
2019-02-04T01:23:27.111Z,951.87
2019-02-04T01:24:27.110Z,951.92
2019-02-04T01:25:26.906Z,952.01
2019-02-04T01:26:26.800Z,951.99
2019-02-04T01:27:26.714Z,951.98
2019-02-04T01:28:26.590Z,951.91
2019-02-04T01:29:26.493Z,951.97
2019-02-04T01:30:26.389Z,951.95
2019-02-04T01:31:26.383Z,951.98
2019-02-04T01:32:26.196Z,952.03
2019-02-04T01:33:26.082Z,951.96
2019-02-04T01:34:25.975Z,951.98
2019-02-04T01:35:25.867Z,952.02
2019-02-04T01:36:25.762Z,952.06
2019-02-04T01:37:25.692Z,952.05
2019-02-04T01:38:25.554Z,952.02
2019-02-04T01:39:25.462Z,952.04
2019-02-04T01:40:25.350Z,952.09
2019-02-04T01:41:25.246Z,952.07
2019-02-04T01:42:25.158Z,952.05
2019-02-04T01:43:25.037Z,952.12
2019-02-04T01:44:24.934Z,952.08
2019-02-04T01:45:24.832Z,952.13
2019-02-04T01:46:25.662Z,952.16
2019-02-04T01:47:24.645Z,952.12
2019-02-04T01:48:24.520Z,952.23
2019-02-04T01:49:24.414Z,952.23
2019-02-04T01:50:24.311Z,952.24
2019-02-04T01:51:24.207Z,952.27
2019-02-04T01:52:24.120Z,952.24
2019-02-04T01:53:23.997Z,952.25
2019-02-04T01:54:23.900Z,952.25
2019-02-04T01:55:23.790Z,952.30
2019-02-04T01:56:23.688Z,952.30
2019-02-04T01:57:23.602Z,952.27
2019-02-04T01:58:23.482Z,952.32
2019-02-04T01:59:23.375Z,952.33
2019-02-04T02:00:23.270Z,952.32
2019-02-04T02:01:23.167Z,952.34
2019-02-04T02:02:23.085Z,952.31
2019-02-04T02:03:22.958Z,952.33
2019-02-04T02:04:22.857Z,952.34
2019-02-04T02:05:22.752Z,952.37
2019-02-04T02:06:22.666Z,952.35
2019-02-04T02:07:22.562Z,952.35
2019-02-04T02:08:22.442Z,952.33
2019-02-04T02:09:22.389Z,952.35
2019-02-04T02:10:22.236Z,952.31
2019-02-04T02:11:22.134Z,952.33
2019-02-04T02:12:22.041Z,952.37
2019-02-04T02:13:21.951Z,952.39
2019-02-04T02:14:21.821Z,952.37
2019-02-04T02:15:21.714Z,952.39
2019-02-04T02:16:21.611Z,952.39
2019-02-04T02:17:26.506Z,952.37
2019-02-04T02:18:21.403Z,952.42
2019-02-04T02:19:21.301Z,952.37
2019-02-04T02:20:21.195Z,952.39
2019-02-04T02:21:21.095Z,952.40
2019-02-04T02:22:21.010Z,952.40
2019-02-04T02:23:20.886Z,952.40
2019-02-04T02:24:20.778Z,952.40
2019-02-04T02:25:20.679Z,952.42
2019-02-04T02:26:20.574Z,952.41
2019-02-04T02:27:20.489Z,952.46
2019-02-04T02:28:20.366Z,952.37
2019-02-04T02:29:20.263Z,952.40
2019-02-04T02:30:20.163Z,952.35
2019-02-04T02:31:20.054Z,952.40
2019-02-04T02:32:19.953Z,952.41
2019-02-04T02:33:19.871Z,952.44
2019-02-04T02:34:19.745Z,952.43
2019-02-04T02:35:19.639Z,952.42
2019-02-04T02:36:19.538Z,952.45
2019-02-04T02:37:19.438Z,952.42
2019-02-04T02:38:19.346Z,952.45
2019-02-04T02:39:19.225Z,952.46
2019-02-04T02:40:19.123Z,952.45
2019-02-04T02:41:19.019Z,952.46
2019-02-04T02:42:18.920Z,952.46
2019-02-04T02:43:18.831Z,952.45
2019-02-04T02:44:18.706Z,952.48
2019-02-04T02:45:18.603Z,952.48
2019-02-04T02:46:18.498Z,952.53
2019-02-04T02:47:18.411Z,952.53
2019-02-04T02:48:18.315Z,952.51
2019-02-04T02:49:18.192Z,952.54
2019-02-04T02:50:18.092Z,952.51
2019-02-04T02:51:17.982Z,952.49
2019-02-04T02:52:17.883Z,952.55
2019-02-04T02:53:17.791Z,952.56
2019-02-04T02:54:17.771Z,952.59
2019-02-04T02:55:17.567Z,952.57
2019-02-04T02:56:17.476Z,952.59
2019-02-04T02:57:17.360Z,952.62
2019-02-04T02:58:17.275Z,952.62
2019-02-04T02:59:17.153Z,952.60
2019-02-04T03:00:17.053Z,952.64
2019-02-04T03:01:17.051Z,952.63
2019-02-04T03:02:16.842Z,952.67
2019-02-04T03:03:16.759Z,952.71
2019-02-04T03:04:16.634Z,952.67
2019-02-04T03:05:16.531Z,952.67
2019-02-04T03:06:16.437Z,952.71
2019-02-04T03:07:16.324Z,952.72
2019-02-04T03:08:16.331Z,952.73
2019-02-04T03:09:16.118Z,952.75
2019-02-04T03:10:16.090Z,952.76
2019-02-04T03:11:15.910Z,952.79
2019-02-04T03:12:15.809Z,952.79
2019-02-04T03:13:15.719Z,952.79
2019-02-04T03:14:15.606Z,952.84
2019-02-04T03:15:15.607Z,952.87
2019-02-04T03:16:15.396Z,952.84
2019-02-04T03:17:15.287Z,952.85
2019-02-04T03:18:15.204Z,952.86
2019-02-04T03:19:15.082Z,952.87
2019-02-04T03:20:14.978Z,952.86
2019-02-04T03:21:14.877Z,952.88
2019-02-04T03:22:14.879Z,952.88
2019-02-04T03:23:14.686Z,952.91
2019-02-04T03:24:14.575Z,952.93
2019-02-04T03:25:14.461Z,952.96
2019-02-04T03:26:14.369Z,952.94
2019-02-04T03:27:14.256Z,952.97
2019-02-04T03:28:14.169Z,953.03
2019-02-04T03:29:14.158Z,953.06
2019-02-04T03:30:13.947Z,953.10
2019-02-04T03:31:13.841Z,953.14
2019-02-04T03:32:13.781Z,953.12
2019-02-04T03:33:13.660Z,953.13
2019-02-04T03:34:13.532Z,953.17
2019-02-04T03:35:13.432Z,953.22
2019-02-04T03:36:13.322Z,953.17
2019-02-04T03:37:13.461Z,953.21
2019-02-04T03:38:13.136Z,953.23
2019-02-04T03:39:13.015Z,953.29
2019-02-04T03:40:12.922Z,953.25
2019-02-04T03:41:12.875Z,953.30
2019-02-04T03:42:12.711Z,953.34
2019-02-04T03:43:12.618Z,953.37
2019-02-04T03:44:12.605Z,953.35
2019-02-04T03:45:12.397Z,953.38
2019-02-04T03:46:12.292Z,953.32
2019-02-04T03:47:12.186Z,953.40
2019-02-04T03:48:12.100Z,953.35
2019-02-04T03:49:11.979Z,953.39
2019-02-04T03:50:11.876Z,953.36
2019-02-04T03:51:11.874Z,953.43
2019-02-04T03:52:11.669Z,953.46
2019-02-04T03:53:11.584Z,953.42
2019-02-04T03:54:11.464Z,953.43
2019-02-04T03:55:11.374Z,953.44
2019-02-04T03:56:11.254Z,953.48
2019-02-04T03:57:11.153Z,953.47
2019-02-04T03:58:11.177Z,953.49
2019-02-04T03:59:10.946Z,953.51
2019-02-04T04:00:10.845Z,953.53
2019-02-04T04:01:10.738Z,953.50
2019-02-04T04:02:10.638Z,953.56
2019-02-04T04:03:10.550Z,953.59
2019-02-04T04:04:10.445Z,953.58
2019-02-04T04:05:10.436Z,953.62
2019-02-04T04:06:10.223Z,953.63
2019-02-04T04:07:10.121Z,953.63
2019-02-04T04:08:10.036Z,953.66
2019-02-04T04:09:09.914Z,953.67
2019-02-04T04:10:09.810Z,953.69
2019-02-04T04:11:09.709Z,953.75
2019-02-04T04:12:09.717Z,953.74
2019-02-04T04:13:09.521Z,953.76
2019-02-04T04:14:09.401Z,953.72
2019-02-04T04:15:09.294Z,953.76
2019-02-04T04:16:09.192Z,953.80
2019-02-04T04:17:09.087Z,953.83
2019-02-04T04:18:16.047Z,953.79
2019-02-04T04:19:08.896Z,953.79
2019-02-04T04:20:08.778Z,953.79
2019-02-04T04:21:08.692Z,953.82
2019-02-04T04:22:08.574Z,953.87
2019-02-04T04:23:08.468Z,953.87
2019-02-04T04:24:08.381Z,953.88
2019-02-04T04:25:08.264Z,953.89
2019-02-04T04:26:08.162Z,953.89
2019-02-04T04:27:08.054Z,953.93
2019-02-04T04:28:07.957Z,953.89
2019-02-04T04:29:07.864Z,953.96
2019-02-04T04:30:07.743Z,953.96
2019-02-04T04:31:07.642Z,953.94
2019-02-04T04:32:07.536Z,953.98
2019-02-04T04:33:07.438Z,953.99
2019-02-04T04:34:07.350Z,954.03
2019-02-04T04:35:07.231Z,954.04
2019-02-04T04:36:07.129Z,954.03
2019-02-04T04:37:07.020Z,954.02
2019-02-04T04:38:06.920Z,954.01
2019-02-04T04:39:06.828Z,954.01
2019-02-04T04:40:06.710Z,954.07
2019-02-04T04:41:06.609Z,954.05
2019-02-04T04:42:06.501Z,954.06
2019-02-04T04:43:06.402Z,954.07
2019-02-04T04:44:06.312Z,954.07
2019-02-04T04:45:06.193Z,954.10
2019-02-04T04:46:06.086Z,954.11
2019-02-04T04:47:05.984Z,954.12
2019-02-04T04:48:05.878Z,954.15
2019-02-04T04:49:05.795Z,954.17
2019-02-04T04:50:05.685Z,954.13
2019-02-04T04:51:05.569Z,954.16
2019-02-04T04:52:05.465Z,954.15
2019-02-04T04:53:05.363Z,954.16
2019-02-04T04:54:05.274Z,954.16
2019-02-04T04:55:05.153Z,954.16
2019-02-04T04:56:05.051Z,954.14
2019-02-04T04:57:04.946Z,954.17
2019-02-04T04:58:04.842Z,954.19
2019-02-04T04:59:04.786Z,954.20
2019-02-04T05:00:04.635Z,954.21
2019-02-04T05:01:04.529Z,954.22
2019-02-04T05:02:04.430Z,954.26
2019-02-04T05:03:04.331Z,954.23
2019-02-04T05:04:04.236Z,954.27
2019-02-04T05:05:04.115Z,954.31
2019-02-04T05:06:04.013Z,954.28
2019-02-04T05:07:03.908Z,954.30
2019-02-04T05:08:03.807Z,954.28
2019-02-04T05:09:03.723Z,954.35
2019-02-04T05:10:03.597Z,954.30
2019-02-04T05:11:03.491Z,954.33
2019-02-04T05:12:03.386Z,954.31
2019-02-04T05:13:03.282Z,954.33
2019-02-04T05:14:03.197Z,954.34
2019-02-04T05:15:03.075Z,954.34
2019-02-04T05:16:02.973Z,954.35
2019-02-04T05:17:02.866Z,954.35
2019-02-04T05:18:02.761Z,954.41
2019-02-04T05:19:02.675Z,954.43
2019-02-04T05:20:02.557Z,954.46
2019-02-04T05:21:02.449Z,954.41
2019-02-04T05:22:02.346Z,954.42
2019-02-04T05:23:02.242Z,954.47
2019-02-04T05:24:02.155Z,954.46
2019-02-04T05:25:02.038Z,954.46
2019-02-04T05:26:01.928Z,954.44
2019-02-04T05:27:01.827Z,954.44
2019-02-04T05:28:01.721Z,954.45
2019-02-04T05:29:01.632Z,954.44
2019-02-04T05:30:01.515Z,954.43
2019-02-04T05:31:01.413Z,954.45
2019-02-04T05:32:01.303Z,954.50
2019-02-04T05:33:01.200Z,954.49
2019-02-04T05:34:01.116Z,954.48
2019-02-04T05:35:01.095Z,954.48
2019-02-04T05:36:00.888Z,954.46
2019-02-04T05:37:00.784Z,954.49
2019-02-04T05:38:00.680Z,954.46
2019-02-04T05:39:00.589Z,954.42
2019-02-04T05:40:00.471Z,954.44
2019-02-04T05:41:00.369Z,954.35
2019-02-04T05:42:00.360Z,954.47
2019-02-04T05:43:00.156Z,954.48
2019-02-04T05:44:00.070Z,954.46
2019-02-04T05:44:59.949Z,954.45
2019-02-04T05:45:59.852Z,954.47
2019-02-04T05:46:59.748Z,954.49
2019-02-04T05:47:59.638Z,954.53
2019-02-04T05:48:59.659Z,954.55
2019-02-04T05:49:59.429Z,954.55
2019-02-04T05:50:59.324Z,954.54
2019-02-04T05:51:59.232Z,954.57
2019-02-04T05:52:59.116Z,954.59
2019-02-04T05:53:59.034Z,954.54
2019-02-04T05:54:58.904Z,954.58
2019-02-04T05:55:58.907Z,954.61
2019-02-04T05:56:58.702Z,954.56
2019-02-04T05:57:58.593Z,954.58
2019-02-04T05:58:58.503Z,954.55
2019-02-04T05:59:58.384Z,954.55
2019-02-04T06:00:58.282Z,954.56
2019-02-04T06:01:58.173Z,954.53
2019-02-04T06:02:58.173Z,954.51
2019-02-04T06:03:57.966Z,954.52
2019-02-04T06:04:57.877Z,954.54
2019-02-04T06:05:57.756Z,954.47
2019-02-04T06:06:57.651Z,954.49
2019-02-04T06:07:57.545Z,954.44
2019-02-04T06:08:57.444Z,954.47
2019-02-04T06:09:57.456Z,954.50
2019-02-04T06:10:57.233Z,954.48
2019-02-04T06:11:57.128Z,954.49
2019-02-04T06:12:57.024Z,954.47
2019-02-04T06:13:56.929Z,954.50
2019-02-04T06:14:56.834Z,954.48
2019-02-04T06:15:56.709Z,954.47
2019-02-04T06:16:56.723Z,954.49
2019-02-04T06:17:56.506Z,954.51
2019-02-04T06:19:01.082Z,954.47
2019-02-04T06:19:56.311Z,954.49
2019-02-04T06:20:56.186Z,954.50
2019-02-04T06:21:56.083Z,954.51
2019-02-04T06:22:55.978Z,954.51
2019-02-04T06:23:55.979Z,954.54
2019-02-04T06:24:55.786Z,954.52
2019-02-04T06:25:55.664Z,954.53
2019-02-04T06:26:55.557Z,954.52
2019-02-04T06:27:55.456Z,954.57
2019-02-04T06:28:55.348Z,954.53
2019-02-04T06:29:55.263Z,954.54
2019-02-04T06:30:55.244Z,954.57
2019-02-04T06:31:55.035Z,954.56
2019-02-04T06:32:54.929Z,954.57
2019-02-04T06:33:54.824Z,954.59
2019-02-04T06:34:54.735Z,954.60
2019-02-04T06:35:54.613Z,954.60
2019-02-04T06:36:54.508Z,954.58
2019-02-04T06:37:54.511Z,954.60
2019-02-04T06:38:54.302Z,954.63
2019-02-04T06:39:54.208Z,954.65
2019-02-04T06:40:54.090Z,954.68
2019-02-04T06:41:53.985Z,954.65
2019-02-04T06:42:53.880Z,954.70
2019-02-04T06:43:53.774Z,954.72
2019-02-04T06:44:53.787Z,954.74
2019-02-04T06:45:53.572Z,954.76
2019-02-04T06:46:53.458Z,954.74
2019-02-04T06:47:53.363Z,954.77
2019-02-04T06:48:53.264Z,954.79
2019-02-04T06:49:53.158Z,954.78
2019-02-04T06:50:53.138Z,954.77
2019-02-04T06:51:52.930Z,954.77
2019-02-04T06:52:52.827Z,954.77
2019-02-04T06:53:52.719Z,954.74
2019-02-04T06:54:52.632Z,954.78
2019-02-04T06:55:52.509Z,954.83
2019-02-04T06:56:52.404Z,954.85
2019-02-04T06:57:52.299Z,954.84
2019-02-04T06:58:52.192Z,954.83
2019-02-04T06:59:52.107Z,954.82
2019-02-04T07:00:51.981Z,954.85
2019-02-04T07:01:51.876Z,954.87
2019-02-04T07:02:51.770Z,954.92
2019-02-04T07:03:51.665Z,954.87
2019-02-04T07:04:51.581Z,954.93
2019-02-04T07:05:51.453Z,955.00
2019-02-04T07:06:51.346Z,955.00
2019-02-04T07:07:51.239Z,954.98
2019-02-04T07:08:51.134Z,955.03
2019-02-04T07:09:51.047Z,954.99
2019-02-04T07:10:50.926Z,954.99
2019-02-04T07:11:50.816Z,955.01
2019-02-04T07:12:50.716Z,955.05
2019-02-04T07:13:50.606Z,955.05
2019-02-04T07:14:50.519Z,955.05
2019-02-04T07:15:50.395Z,955.12
2019-02-04T07:16:50.307Z,955.12
2019-02-04T07:17:50.183Z,955.16
2019-02-04T07:18:50.079Z,955.14
2019-02-04T07:19:49.989Z,955.14
2019-02-04T07:20:49.866Z,955.18
2019-02-04T07:21:49.761Z,955.20
2019-02-04T07:22:49.656Z,955.18
2019-02-04T07:23:49.548Z,955.17
2019-02-04T07:24:49.460Z,955.17
2019-02-04T07:25:49.338Z,955.20
2019-02-04T07:26:49.231Z,955.18
2019-02-04T07:27:49.126Z,955.20
2019-02-04T07:28:49.132Z,955.22
2019-02-04T07:29:48.933Z,955.22
2019-02-04T07:30:48.831Z,955.32
2019-02-04T07:31:48.764Z,955.31
2019-02-04T07:32:48.600Z,955.31
2019-02-04T07:33:48.496Z,955.32
2019-02-04T07:34:48.405Z,955.32
2019-02-04T07:35:48.281Z,955.38
2019-02-04T07:36:48.176Z,955.38
2019-02-04T07:37:48.072Z,955.41
2019-02-04T07:38:47.967Z,955.34
2019-02-04T07:39:47.879Z,955.41
2019-02-04T07:40:47.756Z,955.44
2019-02-04T07:41:47.650Z,955.46
2019-02-04T07:42:47.544Z,955.49
2019-02-04T07:43:47.443Z,955.51
2019-02-04T07:44:47.375Z,955.49
2019-02-04T07:45:47.233Z,955.53
2019-02-04T07:46:47.129Z,955.55
2019-02-04T07:47:47.023Z,955.54
2019-02-04T07:48:46.920Z,955.55
2019-02-04T07:49:46.818Z,955.56
2019-02-04T07:50:46.727Z,955.58
2019-02-04T07:51:46.609Z,955.65
2019-02-04T07:52:46.503Z,955.59
2019-02-04T07:53:46.401Z,955.60
2019-02-04T07:54:46.300Z,955.60
2019-02-04T07:55:46.215Z,955.60
2019-02-04T07:56:46.093Z,955.63
2019-02-04T07:57:45.989Z,955.59
2019-02-04T07:58:45.884Z,955.64
2019-02-04T07:59:45.783Z,955.66
2019-02-04T08:00:45.694Z,955.63
2019-02-04T08:01:45.577Z,955.60
2019-02-04T08:02:45.473Z,955.62
2019-02-04T08:03:45.371Z,955.67
2019-02-04T08:04:45.271Z,955.62
2019-02-04T08:05:45.182Z,955.59
2019-02-04T08:06:45.065Z,955.74
2019-02-04T08:07:45.066Z,955.67
2019-02-04T08:08:44.861Z,955.67
2019-02-04T08:09:44.852Z,955.74
2019-02-04T08:10:44.674Z,955.73
2019-02-04T08:11:44.559Z,955.73
2019-02-04T08:12:44.455Z,955.73
2019-02-04T08:13:44.353Z,955.73
2019-02-04T08:14:45.357Z,955.77
2019-02-04T08:15:44.169Z,955.80
2019-02-04T08:16:44.050Z,955.86
2019-02-04T08:17:43.950Z,955.80
2019-02-04T08:18:43.848Z,955.71
2019-02-04T08:19:47.144Z,955.87
2019-02-04T08:20:43.663Z,955.90
2019-02-04T08:21:43.645Z,955.88
2019-02-04T08:22:43.445Z,955.91
2019-02-04T08:23:43.351Z,955.96
2019-02-04T08:24:43.249Z,955.98
2019-02-04T08:25:43.161Z,955.98
2019-02-04T08:26:43.045Z,956.03
2019-02-04T08:27:42.945Z,956.00
2019-02-04T08:28:42.951Z,956.04
2019-02-04T08:29:42.745Z,956.06
2019-02-04T08:30:42.664Z,956.06
2019-02-04T08:31:42.549Z,956.11
2019-02-04T08:32:42.452Z,956.13
2019-02-04T08:33:42.350Z,956.12
2019-02-04T08:34:42.247Z,956.13
2019-02-04T08:35:42.273Z,956.19
2019-02-04T08:36:44.390Z,956.23
2019-02-04T08:37:41.953Z,956.23
2019-02-04T08:38:41.855Z,956.19
2019-02-04T08:39:41.754Z,956.26
2019-02-04T08:40:41.722Z,956.25
2019-02-04T08:41:41.559Z,956.27
2019-02-04T08:42:41.460Z,956.30
2019-02-04T08:43:41.371Z,956.30
2019-02-04T08:44:41.366Z,956.35
2019-02-04T08:45:41.185Z,956.37
2019-02-04T08:46:41.066Z,956.34
2019-02-04T08:47:40.971Z,956.29
2019-02-04T08:48:40.894Z,956.21
2019-02-04T08:49:40.775Z,956.30
2019-02-04T08:50:40.695Z,956.41
2019-02-04T08:51:40.903Z,956.36
2019-02-04T08:52:40.483Z,956.27
2019-02-04T08:53:40.386Z,956.33
2019-02-04T08:54:40.288Z,956.31
2019-02-04T08:55:40.207Z,956.20
2019-02-04T08:56:42.854Z,956.21
2019-02-04T08:57:39.996Z,956.28
2019-02-04T08:58:40.121Z,956.48
2019-02-04T08:59:39.799Z,956.49
2019-02-04T09:00:39.723Z,956.57
2019-02-04T09:01:39.607Z,956.43
2019-02-04T09:02:39.505Z,956.58
2019-02-04T09:03:39.406Z,956.55
2019-02-04T09:04:39.574Z,956.57
2019-02-04T09:05:39.229Z,956.54
2019-02-04T09:06:39.118Z,956.58
2019-02-04T09:07:39.015Z,956.60
2019-02-04T09:08:38.920Z,956.56
2019-02-04T09:09:38.821Z,956.63
2019-02-04T09:10:38.740Z,956.60
2019-02-04T09:11:38.735Z,956.61
2019-02-04T09:12:38.529Z,956.57
2019-02-04T09:13:38.432Z,956.58
2019-02-04T09:14:38.353Z,956.58
2019-02-04T09:15:38.257Z,956.62
2019-02-04T09:16:38.144Z,956.60
2019-02-04T09:17:38.050Z,956.62
2019-02-04T09:18:44.898Z,956.59
2019-02-04T09:19:37.856Z,956.65
2019-02-04T09:20:37.777Z,956.65
2019-02-04T09:21:37.665Z,956.70
2019-02-04T09:22:37.570Z,956.71
2019-02-04T09:23:37.477Z,956.77
2019-02-04T09:24:37.382Z,956.77
2019-02-04T09:25:37.413Z,956.80
2019-02-04T09:26:37.192Z,956.77
2019-02-04T09:27:37.109Z,956.77
2019-02-04T09:28:37.003Z,956.80
2019-02-04T09:29:36.909Z,956.74
2019-02-04T09:30:36.835Z,956.75
2019-02-04T09:31:36.824Z,956.70
2019-02-04T09:32:36.629Z,956.75
2019-02-04T09:33:36.535Z,956.72
2019-02-04T09:34:36.439Z,956.74
2019-02-04T09:35:36.350Z,956.77
2019-02-04T09:36:36.273Z,956.80
2019-02-04T09:37:36.171Z,956.78
2019-02-04T09:38:36.067Z,956.83
2019-02-04T09:39:36.080Z,956.81
2019-02-04T09:40:37.272Z,956.82
2019-02-04T09:41:35.808Z,956.83
2019-02-04T09:42:35.697Z,956.79
2019-02-04T09:43:35.605Z,956.78
2019-02-04T09:44:35.514Z,956.87
2019-02-04T09:45:35.530Z,956.88
2019-02-04T09:46:35.340Z,956.95
2019-02-04T09:47:35.239Z,956.93
2019-02-04T09:48:35.142Z,956.94
2019-02-04T09:49:35.053Z,956.82
2019-02-04T09:50:34.960Z,956.74
2019-02-04T09:51:34.882Z,956.74
2019-02-04T09:52:34.772Z,956.86
2019-02-04T09:53:34.682Z,956.92
2019-02-04T09:54:34.585Z,956.88
2019-02-04T09:55:34.494Z,956.67
2019-02-04T09:56:34.415Z,956.72
2019-02-04T09:57:34.322Z,956.94
2019-02-04T09:58:34.212Z,956.80
2019-02-04T09:59:34.118Z,956.80
2019-02-04T10:00:34.028Z,956.78
2019-02-04T10:01:33.949Z,956.76
2019-02-04T10:02:33.838Z,956.76
2019-02-04T10:03:33.745Z,956.75
2019-02-04T10:04:33.653Z,956.72
2019-02-04T10:05:33.557Z,956.69
2019-02-04T10:06:33.477Z,956.69
2019-02-04T10:07:33.368Z,956.72
2019-02-04T10:08:33.276Z,956.76
2019-02-04T10:09:33.177Z,956.71
2019-02-04T10:10:33.082Z,956.78
2019-02-04T10:11:33.011Z,956.71
2019-02-04T10:12:32.895Z,956.72
2019-02-04T10:13:32.800Z,956.68
2019-02-04T10:14:32.723Z,956.65
2019-02-04T10:15:32.607Z,956.61
2019-02-04T10:16:32.530Z,956.63
2019-02-04T10:17:32.416Z,956.63
2019-02-04T10:18:32.317Z,956.66
2019-02-04T10:19:32.221Z,956.68
2019-02-04T10:20:34.652Z,956.68
2019-02-04T10:21:32.041Z,956.68
2019-02-04T10:22:31.928Z,956.70
2019-02-04T10:23:31.868Z,956.70
2019-02-04T10:24:31.734Z,956.70
2019-02-04T10:25:31.669Z,956.71
2019-02-04T10:26:31.555Z,956.72
2019-02-04T10:27:31.455Z,956.67
2019-02-04T10:28:31.348Z,956.65
2019-02-04T10:29:31.247Z,956.67
2019-02-04T10:30:31.175Z,956.65
2019-02-04T10:31:31.071Z,956.73
2019-02-04T10:32:30.950Z,956.84
2019-02-04T10:33:30.852Z,956.67
2019-02-04T10:34:30.754Z,956.65
2019-02-04T10:35:30.653Z,956.89
2019-02-04T10:36:30.626Z,956.85
2019-02-04T10:37:30.578Z,956.79
2019-02-04T10:38:30.400Z,956.76
2019-02-04T10:39:30.268Z,956.78
2019-02-04T10:40:30.177Z,956.77
2019-02-04T10:41:30.110Z,956.84
2019-02-04T10:42:30.014Z,956.86
2019-02-04T10:43:29.871Z,956.69
2019-02-04T10:44:29.778Z,956.91
2019-02-04T10:45:29.683Z,956.94
2019-02-04T10:46:29.602Z,956.94
2019-02-04T10:47:29.488Z,956.84
2019-02-04T10:48:29.448Z,956.95
2019-02-04T10:49:29.332Z,956.98
2019-02-04T10:50:29.262Z,956.72
2019-02-04T10:51:29.134Z,957.15
2019-02-04T10:52:29.015Z,956.73
2019-02-04T10:53:28.922Z,956.91
2019-02-04T10:54:28.828Z,956.87
2019-02-04T10:55:28.835Z,957.17
2019-02-04T10:56:28.693Z,956.91
2019-02-04T10:57:39.351Z,956.62
2019-02-04T10:58:28.474Z,956.60
2019-02-04T10:59:28.357Z,956.63
2019-02-04T11:00:28.283Z,956.60
2019-02-04T11:01:28.193Z,956.79
2019-02-04T11:02:28.112Z,956.62
2019-02-04T11:03:27.985Z,956.66
2019-02-04T11:04:27.913Z,956.57
2019-02-04T11:05:27.824Z,956.52
2019-02-04T11:06:27.720Z,957.11
2019-02-04T11:07:27.605Z,956.48
2019-02-04T11:08:27.680Z,957.14
2019-02-04T11:09:27.560Z,956.63
2019-02-04T11:10:27.354Z,956.45
2019-02-04T11:11:27.269Z,956.49
2019-02-04T11:12:27.133Z,956.47
2019-02-04T11:13:27.079Z,956.41
2019-02-04T11:14:26.942Z,956.42
2019-02-04T11:15:26.846Z,956.43
2019-02-04T11:16:26.864Z,956.39
2019-02-04T11:17:26.749Z,956.37
2019-02-04T11:18:26.561Z,956.35
2019-02-04T11:19:26.483Z,956.35
2019-02-04T11:20:26.369Z,956.32
2019-02-04T11:21:26.312Z,956.34
2019-02-04T11:22:26.234Z,956.30
2019-02-04T11:23:29.011Z,956.26
2019-02-04T11:24:26.001Z,956.24
2019-02-04T11:25:25.933Z,956.21
2019-02-04T11:26:26.745Z,956.19
2019-02-04T11:27:25.727Z,956.12
2019-02-04T11:28:25.648Z,956.10
2019-02-04T11:29:25.502Z,956.09
2019-02-04T11:30:25.514Z,956.08
2019-02-04T11:31:25.321Z,956.10
2019-02-04T11:32:25.257Z,956.06
2019-02-04T11:33:25.116Z,956.09
2019-02-04T11:34:25.014Z,956.07
2019-02-04T11:35:24.923Z,956.45
2019-02-04T11:36:24.870Z,956.61
2019-02-04T11:37:24.842Z,956.04
2019-02-04T11:38:24.622Z,956.03
2019-02-04T11:39:24.559Z,956.12
2019-02-04T11:40:24.437Z,956.06
2019-02-04T11:41:24.361Z,956.08
2019-02-04T11:42:24.335Z,956.05
2019-02-04T11:43:24.134Z,956.08
2019-02-04T11:44:24.161Z,956.10
2019-02-04T11:45:23.940Z,956.15
2019-02-04T11:46:23.839Z,956.20
2019-02-04T11:47:23.757Z,956.18
2019-02-04T11:48:23.661Z,956.17
2019-02-04T11:49:23.546Z,956.11
2019-02-04T11:50:23.446Z,956.07
2019-02-04T11:51:23.446Z,956.10
2019-02-04T11:52:23.267Z,956.13
2019-02-04T11:53:32.578Z,956.09
2019-02-04T11:54:23.052Z,956.09
2019-02-04T11:55:22.951Z,956.15
2019-02-04T11:56:22.854Z,956.18
2019-02-04T11:57:22.775Z,956.28
2019-02-04T11:58:22.760Z,956.23
2019-02-04T11:59:22.558Z,956.30
2019-02-04T12:00:22.459Z,956.48
2019-02-04T12:01:22.360Z,956.31
2019-02-04T12:02:22.277Z,956.18
2019-02-04T12:03:22.164Z,956.13
2019-02-04T12:04:22.065Z,956.42
2019-02-04T12:05:22.069Z,956.40
2019-02-04T12:06:21.868Z,956.23
2019-02-04T12:07:21.790Z,956.12
2019-02-04T12:08:21.680Z,956.15
2019-02-04T12:09:21.574Z,956.14
2019-02-04T12:10:21.478Z,956.24
2019-02-04T12:11:21.379Z,956.24
2019-02-04T12:12:21.399Z,956.15
2019-02-04T12:13:21.183Z,956.13
2019-02-04T12:14:21.085Z,956.11
2019-02-04T12:15:20.986Z,956.11
2019-02-04T12:16:20.891Z,956.07
2019-02-04T12:17:20.808Z,956.02
2019-02-04T12:18:20.799Z,956.14
2019-02-04T12:19:20.596Z,956.31
2019-02-04T12:20:20.496Z,956.04
2019-02-04T12:21:21.754Z,956.23
2019-02-04T12:22:20.313Z,956.04
2019-02-04T12:23:20.201Z,956.15
2019-02-04T12:24:20.103Z,956.07
2019-02-04T12:25:20.028Z,955.98
2019-02-04T12:26:19.906Z,955.89
2019-02-04T12:27:31.565Z,955.91